Decoded Metar for VOCL (CALICUT in INDIA) (IATA:CCJ) | Meteo·Mobile Aviation Weather
aviador You're here:

VOCL Decoded Metar

CALICUT in INDIA
Report Time2018-12-18 22:00:00
UTC Time2018-12-18 22:06:46
Flight Rules mvfr MVFR
Wind140° at 03 kt
W.Decomp.*RWY 10: 2.2 kt HW 2.0 kt RCW
W.Rank140° ranks 31
Current wind is below 140° avg. (3.9)
Visibility5000 m
Phenomena:Mist
Clouds:Few 015 Hf
Expected CloudBase > 1,600 ft AGL from Temp-Dew spread
CeilingNone
Temp23°C (ISA +9)
Dew Point19°C (78% RH)
QNH1010 hPa
Density Alt1,742 ft
Elevation341 ft
Report Wrong Elevation
Raw Report
METAR VOCL 182200Z 14003KT 5000 BR FEW015 23/19 Q1010 NOSIG=####018000078####
SAIN90 VABB 182200

Extra information for VOCL:More info

Metar Taf Metar & Taf Last 4 Metars F.Rules Stats Wind Profile Meteogram Temp Stats Airport Information Weather charts Add Link Nearby VenuesMetar ALERT Operation Metar Decoded Social comments